createdAt,value
2023-05-19T00:00:20.760Z,80.65
2023-05-19T00:01:20.784Z,80.55
2023-05-19T00:02:20.817Z,80.35
2023-05-19T00:03:20.794Z,80.35
2023-05-19T00:04:20.727Z,80.24
2023-05-19T00:05:20.797Z,80.14
2023-05-19T00:06:20.724Z,80.14
2023-05-19T00:07:20.787Z,80.14
2023-05-19T00:08:20.701Z,80.04
2023-05-19T00:09:20.680Z,80.14
2023-05-19T00:10:20.639Z,80.24
2023-05-19T00:11:20.749Z,80.35
2023-05-19T00:12:20.639Z,80.55
2023-05-19T00:13:20.672Z,80.65
2023-05-19T00:14:20.604Z,80.76
2023-05-19T00:15:20.593Z,80.86
2023-05-19T00:16:20.674Z,80.86
2023-05-19T00:17:20.637Z,80.86
2023-05-19T00:18:20.612Z,80.86
2023-05-19T00:19:20.677Z,80.76
2023-05-19T00:20:20.549Z,80.65
2023-05-19T00:21:20.513Z,80.55
2023-05-19T00:22:20.495Z,80.38
2023-05-19T00:23:20.507Z,80.38
2023-05-19T00:24:20.488Z,80.58
2023-05-19T00:25:20.465Z,80.58
2023-05-19T00:26:20.459Z,80.58
2023-05-19T00:27:20.445Z,80.58
2023-05-19T00:28:20.474Z,80.49
2023-05-19T00:29:20.441Z,80.58
2023-05-19T00:30:20.475Z,80.58
2023-05-19T00:31:20.459Z,80.58
2023-05-19T00:32:27.006Z,80.58
2023-05-19T00:33:20.411Z,80.69
2023-05-19T00:34:20.371Z,80.90
2023-05-19T00:35:20.359Z,80.79
2023-05-19T00:36:20.405Z,80.69
2023-05-19T00:37:20.333Z,80.69
2023-05-19T00:38:20.388Z,80.69
2023-05-19T00:39:20.344Z,80.69
2023-05-19T00:40:20.305Z,80.69
2023-05-19T00:41:20.326Z,80.69
2023-05-19T00:42:20.332Z,80.69
2023-05-19T00:43:20.326Z,80.69
2023-05-19T00:44:20.258Z,80.79
2023-05-19T00:45:20.334Z,80.90
2023-05-19T00:46:20.293Z,81.00
2023-05-19T00:47:20.249Z,81.20
2023-05-19T00:48:20.254Z,81.20
2023-05-19T00:49:20.203Z,81.20
2023-05-19T00:50:20.208Z,81.20
2023-05-19T00:51:20.199Z,81.20
2023-05-19T00:52:20.198Z,81.20
2023-05-19T00:53:20.189Z,81.34
2023-05-19T00:54:20.154Z,81.34
2023-05-19T00:55:20.143Z,81.45
2023-05-19T00:56:20.149Z,81.55
2023-05-19T00:57:20.110Z,81.55
2023-05-19T00:58:20.136Z,81.55
2023-05-19T00:59:20.086Z,81.55
2023-05-19T01:00:20.079Z,81.55
2023-05-19T01:01:20.151Z,81.65
2023-05-19T01:02:20.130Z,81.65
2023-05-19T01:03:20.149Z,81.86
2023-05-19T01:04:20.073Z,82.10
2023-05-19T01:05:20.069Z,82.20
2023-05-19T01:06:20.025Z,82.31
2023-05-19T01:07:20.033Z,82.31
2023-05-19T01:08:20.063Z,82.31
2023-05-19T01:09:19.993Z,82.41
2023-05-19T01:10:19.978Z,82.71
2023-05-19T01:11:19.992Z,82.82
2023-05-19T01:12:19.980Z,82.82
2023-05-19T01:13:19.969Z,82.92
2023-05-19T01:14:19.970Z,83.13
2023-05-19T01:15:19.932Z,83.23
2023-05-19T01:16:19.944Z,83.23
2023-05-19T01:17:19.906Z,83.23
2023-05-19T01:18:19.920Z,83.44
2023-05-19T01:19:20.035Z,83.54
2023-05-19T01:20:19.882Z,83.44
2023-05-19T01:21:19.879Z,83.44
2023-05-19T01:22:19.854Z,83.54
2023-05-19T01:23:19.854Z,83.54
2023-05-19T01:24:19.821Z,83.54
2023-05-19T01:25:19.832Z,83.64
2023-05-19T01:26:19.796Z,83.75
2023-05-19T01:27:19.805Z,83.75
2023-05-19T01:28:19.800Z,83.54
2023-05-19T01:29:19.788Z,83.54
2023-05-19T01:30:19.774Z,83.44
2023-05-19T01:31:19.802Z,83.44
2023-05-19T01:32:19.758Z,83.44
2023-05-19T01:33:19.754Z,83.44
2023-05-19T01:34:19.732Z,83.44
2023-05-19T01:35:19.703Z,83.44
2023-05-19T01:36:19.704Z,83.64
2023-05-19T01:37:19.717Z,83.85
2023-05-19T01:38:19.674Z,83.95
2023-05-19T01:39:19.690Z,83.85
2023-05-19T01:40:19.669Z,83.85
2023-05-19T01:41:19.657Z,83.85
2023-05-19T01:42:19.640Z,83.85
2023-05-19T01:43:19.677Z,83.75
2023-05-19T01:44:19.608Z,83.64
2023-05-19T01:45:19.599Z,83.75
2023-05-19T01:46:19.634Z,83.85
2023-05-19T01:47:19.582Z,84.05
2023-05-19T01:48:19.590Z,84.05
2023-05-19T01:49:19.581Z,84.05
2023-05-19T01:50:19.589Z,83.95
2023-05-19T01:51:19.542Z,84.09
2023-05-19T01:52:19.524Z,84.20
2023-05-19T01:53:19.511Z,84.20
2023-05-19T01:54:19.548Z,84.30
2023-05-19T01:55:19.519Z,84.20
2023-05-19T01:56:19.476Z,84.09
2023-05-19T01:57:19.493Z,84.30
2023-05-19T01:58:19.471Z,84.40
2023-05-19T01:59:19.441Z,84.40
2023-05-19T02:00:21.225Z,84.50
2023-05-19T02:01:19.511Z,84.61
2023-05-19T02:02:19.415Z,84.40
2023-05-19T02:03:19.403Z,84.40
2023-05-19T02:04:19.461Z,84.40
2023-05-19T02:05:19.376Z,84.50
2023-05-19T02:06:19.383Z,84.50
2023-05-19T02:07:19.357Z,84.50
2023-05-19T02:08:19.354Z,84.40
2023-05-19T02:09:19.331Z,84.50
2023-05-19T02:10:19.331Z,84.50
2023-05-19T02:11:19.338Z,84.50
2023-05-19T02:12:19.320Z,84.50
2023-05-19T02:13:19.284Z,84.40
2023-05-19T02:14:19.302Z,84.40
2023-05-19T02:15:19.287Z,84.50
2023-05-19T02:16:19.300Z,84.61
2023-05-19T02:17:19.262Z,84.61
2023-05-19T02:18:19.276Z,84.81
2023-05-19T02:19:19.273Z,84.71
2023-05-19T02:20:19.222Z,84.61
2023-05-19T02:21:19.203Z,84.71
2023-05-19T02:22:19.216Z,84.71
2023-05-19T02:23:19.175Z,84.61
2023-05-19T02:24:19.182Z,84.71
2023-05-19T02:25:19.186Z,84.71
2023-05-19T02:26:19.137Z,84.61
2023-05-19T02:27:19.182Z,84.71
2023-05-19T02:28:19.165Z,84.95
2023-05-19T02:29:19.112Z,85.06
2023-05-19T02:30:19.110Z,85.26
2023-05-19T02:31:19.124Z,85.36
2023-05-19T02:32:19.218Z,85.36
2023-05-19T02:33:19.076Z,85.36
2023-05-19T02:34:19.067Z,85.36
2023-05-19T02:35:19.059Z,85.36
2023-05-19T02:36:19.055Z,85.47
2023-05-19T02:37:19.027Z,85.47
2023-05-19T02:38:19.030Z,85.57
2023-05-19T02:39:19.025Z,85.57
2023-05-19T02:40:18.994Z,85.47
2023-05-19T02:41:18.981Z,85.68
2023-05-19T02:42:18.985Z,85.68
2023-05-19T02:43:18.988Z,85.78
2023-05-19T02:44:18.963Z,85.78
2023-05-19T02:45:18.968Z,85.74
2023-05-19T02:46:18.982Z,85.84
2023-05-19T02:47:18.918Z,85.84
2023-05-19T02:48:18.920Z,85.74
2023-05-19T02:49:18.898Z,85.63
2023-05-19T02:50:18.906Z,85.63
2023-05-19T02:51:18.884Z,85.63
2023-05-19T02:52:18.876Z,85.53
2023-05-19T02:53:18.859Z,85.63
2023-05-19T02:54:18.857Z,85.74
2023-05-19T02:55:18.853Z,85.74
2023-05-19T02:56:18.831Z,85.63
2023-05-19T02:57:18.810Z,85.53
2023-05-19T02:58:18.813Z,85.63
2023-05-19T02:59:18.805Z,85.53
2023-05-19T03:00:18.785Z,85.53
2023-05-19T03:01:18.790Z,85.53
2023-05-19T03:02:18.748Z,85.53
2023-05-19T03:03:19.771Z,85.63
2023-05-19T03:04:18.722Z,85.49
2023-05-19T03:05:18.712Z,85.49
2023-05-19T03:06:18.739Z,85.60
2023-05-19T03:07:18.692Z,85.60
2023-05-19T03:08:18.698Z,85.49
2023-05-19T03:09:18.685Z,85.49
2023-05-19T03:10:18.682Z,85.49
2023-05-19T03:11:18.647Z,85.49
2023-05-19T03:12:18.678Z,85.60
2023-05-19T03:13:18.648Z,85.70
2023-05-19T03:14:18.769Z,85.60
2023-05-19T03:15:18.618Z,85.60
2023-05-19T03:16:18.619Z,85.70
2023-05-19T03:17:18.589Z,85.70
2023-05-19T03:18:18.637Z,85.46
2023-05-19T03:19:18.659Z,85.35
2023-05-19T03:20:18.556Z,85.35
2023-05-19T03:21:18.546Z,85.35
2023-05-19T03:22:18.550Z,85.46
2023-05-19T03:23:18.537Z,85.55
2023-05-19T03:24:18.571Z,85.35
2023-05-19T03:25:18.506Z,85.35
2023-05-19T03:26:18.491Z,85.25
2023-05-19T03:27:18.539Z,85.25
2023-05-19T03:28:18.488Z,85.25
2023-05-19T03:29:18.461Z,85.25
2023-05-19T03:30:18.500Z,85.35
2023-05-19T03:31:18.502Z,85.25
2023-05-19T03:32:18.480Z,85.25
2023-05-19T03:33:18.655Z,85.14
2023-05-19T03:34:18.413Z,85.35
2023-05-19T03:35:18.396Z,85.35
2023-05-19T03:36:18.422Z,85.46
2023-05-19T03:37:18.408Z,85.46
2023-05-19T03:38:18.381Z,85.35
2023-05-19T03:39:18.382Z,85.25
2023-05-19T03:40:18.359Z,85.25
2023-05-19T03:41:18.335Z,85.25
2023-05-19T03:42:18.327Z,85.25
2023-05-19T03:43:18.315Z,85.25
2023-05-19T03:44:18.316Z,85.35
2023-05-19T03:45:18.295Z,85.35
2023-05-19T03:46:18.348Z,85.31
2023-05-19T03:47:18.279Z,85.31
2023-05-19T03:48:21.086Z,85.21
2023-05-19T03:49:18.234Z,85.00
2023-05-19T03:50:18.240Z,85.11
2023-05-19T03:51:18.214Z,84.90
2023-05-19T03:52:18.216Z,84.80
2023-05-19T03:53:18.224Z,84.90
2023-05-19T03:54:18.198Z,85.00
2023-05-19T03:55:18.197Z,85.00
2023-05-19T03:56:18.194Z,85.00
2023-05-19T03:57:18.151Z,84.90
2023-05-19T03:58:18.166Z,85.00
2023-05-19T03:59:18.133Z,85.11
2023-05-19T04:00:18.128Z,85.00
2023-05-19T04:01:18.122Z,85.00
2023-05-19T04:02:18.141Z,84.96
2023-05-19T04:03:18.225Z,84.96
2023-05-19T04:04:18.147Z,84.96
2023-05-19T04:05:18.089Z,84.96
2023-05-19T04:06:18.100Z,84.96
2023-05-19T04:07:18.039Z,85.06
2023-05-19T04:08:18.108Z,84.96
2023-05-19T04:09:18.030Z,85.06
2023-05-19T04:10:18.020Z,85.06
2023-05-19T04:11:18.022Z,85.17
2023-05-19T04:12:17.987Z,85.27
2023-05-19T04:13:18.015Z,85.17
2023-05-19T04:14:17.975Z,85.06
2023-05-19T04:15:17.946Z,85.06
2023-05-19T04:16:18.085Z,85.03
2023-05-19T04:17:17.940Z,85.03
2023-05-19T04:18:17.941Z,85.03
2023-05-19T04:19:18.076Z,84.82
2023-05-19T04:20:17.892Z,84.72
2023-05-19T04:21:17.914Z,84.61
2023-05-19T04:22:17.883Z,84.72
2023-05-19T04:23:17.881Z,84.82
2023-05-19T04:24:17.890Z,84.82
2023-05-19T04:25:17.846Z,84.61
2023-05-19T04:26:17.851Z,84.72
2023-05-19T04:27:17.865Z,84.82
2023-05-19T04:28:17.834Z,84.78
2023-05-19T04:29:17.818Z,84.68
2023-05-19T04:30:18.711Z,84.68
2023-05-19T04:31:17.795Z,84.58
2023-05-19T04:32:18.159Z,84.58
2023-05-19T04:33:17.774Z,84.47
2023-05-19T04:34:17.754Z,84.58
2023-05-19T04:35:17.753Z,84.47
2023-05-19T04:36:17.746Z,84.37
2023-05-19T04:37:17.721Z,84.47
2023-05-19T04:38:17.732Z,84.68
2023-05-19T04:39:17.700Z,84.58
2023-05-19T04:40:17.694Z,84.58
2023-05-19T04:41:17.673Z,84.53
2023-05-19T04:42:17.658Z,84.44
2023-05-19T04:43:17.659Z,84.58
2023-05-19T04:44:17.641Z,84.47
2023-05-19T04:45:17.629Z,84.33
2023-05-19T04:46:17.672Z,84.33
2023-05-19T04:47:17.613Z,84.23
2023-05-19T04:48:17.611Z,84.33
2023-05-19T04:49:17.630Z,84.64
2023-05-19T04:50:17.607Z,84.64
2023-05-19T04:51:17.564Z,84.64
2023-05-19T04:52:17.556Z,84.64
2023-05-19T04:53:17.550Z,84.53
2023-05-19T04:54:17.555Z,84.64
2023-05-19T04:55:17.527Z,84.74
2023-05-19T04:56:17.523Z,84.74
2023-05-19T04:57:17.495Z,84.64
2023-05-19T04:58:17.549Z,84.64
2023-05-19T04:59:17.472Z,84.74
2023-05-19T05:00:17.469Z,84.74
2023-05-19T05:01:17.505Z,85.05
2023-05-19T05:02:17.526Z,85.05
2023-05-19T05:03:17.571Z,84.95
2023-05-19T05:04:17.413Z,84.95
2023-05-19T05:05:17.404Z,84.95
2023-05-19T05:06:17.389Z,84.95
2023-05-19T05:07:17.416Z,84.74
2023-05-19T05:08:17.396Z,84.95
2023-05-19T05:09:17.362Z,85.05
2023-05-19T05:10:17.366Z,84.95
2023-05-19T05:11:17.337Z,84.84
2023-05-19T05:12:17.321Z,84.74
2023-05-19T05:13:17.347Z,84.95
2023-05-19T05:14:17.325Z,84.84
2023-05-19T05:15:17.310Z,84.95
2023-05-19T05:16:17.361Z,84.95
2023-05-19T05:17:17.289Z,84.95
2023-05-19T05:18:17.284Z,85.05
2023-05-19T05:19:17.321Z,85.05
2023-05-19T05:20:17.253Z,85.25
2023-05-19T05:21:17.226Z,85.25
2023-05-19T05:22:17.268Z,85.31
2023-05-19T05:23:17.221Z,85.31
2023-05-19T05:24:17.197Z,85.11
2023-05-19T05:25:17.201Z,85.11
2023-05-19T05:26:17.167Z,85.11
2023-05-19T05:27:17.157Z,85.01
2023-05-19T05:28:17.188Z,85.01
2023-05-19T05:29:17.154Z,84.87
2023-05-19T05:30:17.126Z,84.97
2023-05-19T05:31:17.110Z,85.17
2023-05-19T05:32:17.183Z,84.87
2023-05-19T05:33:17.207Z,84.66
2023-05-19T05:34:17.089Z,84.46
2023-05-19T05:35:17.068Z,84.46
2023-05-19T05:36:17.071Z,84.46
2023-05-19T05:37:17.068Z,84.46
2023-05-19T05:38:17.053Z,84.56
2023-05-19T05:39:17.022Z,84.52
2023-05-19T05:40:17.043Z,84.63
2023-05-19T05:41:17.012Z,85.24
2023-05-19T05:42:16.996Z,85.10
2023-05-19T05:43:17.004Z,84.79
2023-05-19T05:44:16.990Z,84.48
2023-05-19T05:45:16.970Z,84.79
2023-05-19T05:46:16.988Z,84.79
2023-05-19T05:47:16.934Z,84.38
2023-05-19T05:48:17.003Z,84.48
2023-05-19T05:49:16.914Z,84.24
2023-05-19T05:50:16.913Z,84.14
2023-05-19T05:51:16.942Z,83.62
2023-05-19T05:52:16.897Z,83.42
2023-05-19T05:53:16.886Z,83.22
2023-05-19T05:54:16.866Z,83.32
2023-05-19T05:55:16.873Z,83.22
2023-05-19T05:56:16.841Z,83.22
2023-05-19T05:57:16.834Z,82.97
2023-05-19T05:58:16.826Z,82.97
2023-05-19T05:59:16.833Z,82.97
2023-05-19T06:00:16.799Z,83.28
2023-05-19T06:01:16.788Z,82.67
2023-05-19T06:02:16.814Z,82.87
2023-05-19T06:03:16.975Z,83.07
2023-05-19T06:04:16.804Z,82.97
2023-05-19T06:05:16.835Z,83.07
2023-05-19T06:06:16.755Z,82.77
2023-05-19T06:07:16.773Z,82.56
2023-05-19T06:08:16.773Z,82.26
2023-05-19T06:09:16.723Z,82.87
2023-05-19T06:10:16.700Z,82.42
2023-05-19T06:11:16.679Z,82.22
2023-05-19T06:12:16.722Z,82.22
2023-05-19T06:13:16.680Z,82.42
2023-05-19T06:14:16.689Z,82.42
2023-05-19T06:15:16.642Z,82.42
2023-05-19T06:16:16.741Z,82.42
2023-05-19T06:17:16.605Z,82.22
2023-05-19T06:18:16.631Z,82.01
2023-05-19T06:19:16.691Z,81.77
2023-05-19T06:20:16.579Z,81.77
2023-05-19T06:21:16.566Z,81.87
2023-05-19T06:22:16.590Z,82.39
2023-05-19T06:23:16.556Z,81.98
2023-05-19T06:24:16.560Z,81.46
2023-05-19T06:25:16.524Z,81.16
2023-05-19T06:26:16.532Z,81.05
2023-05-19T06:27:16.522Z,81.26
2023-05-19T06:28:16.510Z,81.43
2023-05-19T06:29:16.502Z,80.82
2023-05-19T06:30:16.533Z,81.43
2023-05-19T06:31:16.551Z,81.23
2023-05-19T06:32:16.465Z,81.12
2023-05-19T06:33:16.478Z,80.82
2023-05-19T06:34:16.452Z,81.09
2023-05-19T06:35:16.416Z,81.09
2023-05-19T06:36:16.455Z,80.88
2023-05-19T06:37:16.406Z,80.98
2023-05-19T06:38:16.415Z,80.88
2023-05-19T06:39:16.406Z,79.86
2023-05-19T06:40:16.377Z,79.62
2023-05-19T06:41:16.376Z,79.72
2023-05-19T06:42:16.353Z,79.82
2023-05-19T06:43:16.349Z,79.48
2023-05-19T06:44:16.362Z,78.97
2023-05-19T06:45:16.344Z,79.07
2023-05-19T06:46:16.313Z,79.68
2023-05-19T06:47:16.459Z,79.17
2023-05-19T06:48:16.546Z,79.68
2023-05-19T06:49:16.308Z,78.93
2023-05-19T06:50:16.275Z,78.73
2023-05-19T06:51:16.241Z,77.30
2023-05-19T06:52:16.245Z,76.96
2023-05-19T06:53:16.238Z,76.96
2023-05-19T06:54:16.548Z,77.13
2023-05-19T06:55:17.174Z,76.92
2023-05-19T06:56:16.202Z,76.42
2023-05-19T06:57:16.182Z,74.65
2023-05-19T06:58:16.191Z,74.15
2023-05-19T06:59:16.181Z,73.63
2023-05-19T07:00:18.707Z,74.21
2023-05-19T07:01:17.152Z,73.80
2023-05-19T07:02:16.155Z,72.99
2023-05-19T07:03:16.179Z,73.36
2023-05-19T07:04:16.137Z,72.75
2023-05-19T07:05:16.095Z,71.91
2023-05-19T07:06:16.107Z,70.99
2023-05-19T07:07:16.069Z,70.38
2023-05-19T07:08:16.085Z,69.87
2023-05-19T07:09:16.063Z,71.09
2023-05-19T07:10:16.050Z,70.99
2023-05-19T07:11:16.032Z,69.37
2023-05-19T07:12:16.020Z,69.13
2023-05-19T07:13:15.991Z,68.93
2023-05-19T07:14:16.022Z,69.64
2023-05-19T07:15:16.651Z,69.03
2023-05-19T07:16:16.085Z,69.03
2023-05-19T07:17:15.976Z,68.83
2023-05-19T07:18:15.952Z,68.12
2023-05-19T07:19:15.993Z,67.61
2023-05-19T07:20:15.925Z,67.58
2023-05-19T07:21:15.919Z,66.77
2023-05-19T07:22:15.921Z,66.66
2023-05-19T07:23:17.389Z,66.86
2023-05-19T07:24:15.899Z,66.97
2023-05-19T07:25:15.896Z,67.68
2023-05-19T07:26:15.858Z,67.68
2023-05-19T07:27:15.853Z,68.52
2023-05-19T07:28:15.870Z,69.03
2023-05-19T07:29:15.837Z,70.04
2023-05-19T07:30:15.816Z,68.83
2023-05-19T07:31:15.810Z,69.13
2023-05-19T07:32:15.870Z,68.42
2023-05-19T07:33:15.867Z,68.52
2023-05-19T07:34:15.796Z,68.73
2023-05-19T07:35:15.796Z,68.83
2023-05-19T07:36:15.756Z,68.12
2023-05-19T07:37:15.793Z,68.01
2023-05-19T07:38:15.731Z,67.47
2023-05-19T07:39:15.808Z,67.47
2023-05-19T07:40:15.716Z,66.97
2023-05-19T07:41:36.735Z,67.07
2023-05-19T07:42:36.708Z,68.15
2023-05-19T07:43:15.673Z,68.26
2023-05-19T07:44:15.676Z,68.15
2023-05-19T07:45:15.666Z,68.12
2023-05-19T07:46:15.727Z,66.19
2023-05-19T07:47:15.623Z,65.89
2023-05-19T07:48:15.665Z,66.50
2023-05-19T07:49:15.641Z,68.23
2023-05-19T07:50:15.609Z,66.47
2023-05-19T07:51:15.587Z,65.66
2023-05-19T07:52:15.579Z,66.67
2023-05-19T07:53:15.562Z,65.25
2023-05-19T07:54:16.153Z,64.14
2023-05-19T07:55:15.546Z,63.93
2023-05-19T07:56:15.535Z,63.73
2023-05-19T07:57:15.528Z,63.60
2023-05-19T07:58:15.530Z,63.81
2023-05-19T07:59:15.521Z,63.90
2023-05-19T08:00:15.508Z,64.31
2023-05-19T08:01:15.467Z,63.50
2023-05-19T08:02:15.495Z,64.01
2023-05-19T08:03:15.599Z,64.61
2023-05-19T08:04:15.529Z,65.09
2023-05-19T08:05:15.442Z,62.86
2023-05-19T08:06:15.443Z,63.27
2023-05-19T08:07:15.408Z,64.58
2023-05-19T08:08:15.403Z,66.41
2023-05-19T08:09:15.411Z,66.30
2023-05-19T08:10:15.382Z,63.87
2023-05-19T08:11:15.374Z,64.86
2023-05-19T08:12:15.355Z,65.16
2023-05-19T08:13:15.344Z,63.54
2023-05-19T08:14:15.368Z,62.10
2023-05-19T08:15:15.339Z,61.69
2023-05-19T08:16:15.389Z,61.52
2023-05-19T08:17:15.326Z,62.53
2023-05-19T08:18:15.286Z,62.63
2023-05-19T08:19:15.340Z,63.34
2023-05-19T08:20:15.275Z,63.84
2023-05-19T08:21:15.254Z,64.04
2023-05-19T08:22:15.248Z,64.04
2023-05-19T08:23:15.234Z,63.75
2023-05-19T08:24:15.257Z,63.44
2023-05-19T08:25:15.223Z,63.95
2023-05-19T08:26:15.211Z,62.84
2023-05-19T08:27:15.191Z,63.41
2023-05-19T08:28:15.198Z,62.60
2023-05-19T08:29:15.216Z,62.07
2023-05-19T08:30:15.180Z,62.47
2023-05-19T08:31:15.173Z,62.54
2023-05-19T08:32:15.182Z,61.94
2023-05-19T08:33:15.182Z,62.95
2023-05-19T08:34:15.144Z,59.91
2023-05-19T08:35:15.130Z,60.93
2023-05-19T08:36:15.113Z,61.73
2023-05-19T08:37:15.103Z,60.32
2023-05-19T08:38:15.102Z,60.80
2023-05-19T08:39:15.083Z,61.80
2023-05-19T08:40:15.070Z,63.09
2023-05-19T08:41:15.559Z,62.48
2023-05-19T08:42:15.039Z,62.38
2023-05-19T08:43:15.026Z,61.77
2023-05-19T08:44:16.990Z,62.59
2023-05-19T08:45:15.007Z,63.06
2023-05-19T08:46:15.153Z,61.95
2023-05-19T08:47:15.037Z,61.52
2023-05-19T08:48:15.000Z,61.61
2023-05-19T08:49:14.992Z,60.78
2023-05-19T08:50:14.949Z,60.38
2023-05-19T08:51:14.943Z,60.08
2023-05-19T08:52:14.949Z,59.77
2023-05-19T08:53:28.888Z,60.08
2023-05-19T08:54:14.927Z,59.20
2023-05-19T08:55:14.908Z,60.03
2023-05-19T08:56:14.887Z,61.35
2023-05-19T08:57:14.867Z,61.14
2023-05-19T08:58:14.855Z,61.75
2023-05-19T08:59:14.860Z,61.47
2023-05-19T09:00:14.850Z,60.57
2023-05-19T09:01:14.868Z,60.36
2023-05-19T09:02:14.837Z,60.36
2023-05-19T09:03:22.809Z,60.06
2023-05-19T09:04:14.860Z,60.36
2023-05-19T09:05:14.871Z,60.57
2023-05-19T09:06:14.805Z,60.09
2023-05-19T09:07:14.766Z,60.39
2023-05-19T09:08:14.761Z,60.39
2023-05-19T09:09:14.748Z,59.69
2023-05-19T09:10:14.720Z,59.18
2023-05-19T09:11:14.707Z,59.38
2023-05-19T09:12:14.710Z,60.26
2023-05-19T09:13:14.698Z,60.46
2023-05-19T09:14:14.695Z,60.46
2023-05-19T09:15:14.664Z,59.56
2023-05-19T09:16:14.681Z,59.25
2023-05-19T09:17:14.677Z,59.96
2023-05-19T09:18:14.658Z,60.46
2023-05-19T09:19:14.697Z,60.87
2023-05-19T09:20:14.625Z,60.06
2023-05-19T09:21:14.593Z,59.76
2023-05-19T09:22:14.606Z,60.77
2023-05-19T09:23:14.580Z,61.27
2023-05-19T09:24:14.597Z,61.68
2023-05-19T09:25:14.553Z,61.88
2023-05-19T09:26:14.551Z,63.79
2023-05-19T09:27:14.528Z,61.77
2023-05-19T09:28:14.536Z,61.17
2023-05-19T09:29:14.547Z,61.04
2023-05-19T09:30:14.521Z,60.81
2023-05-19T09:31:14.497Z,60.41
2023-05-19T09:32:14.506Z,60.51
2023-05-19T09:33:14.503Z,60.17
2023-05-19T09:34:14.483Z,60.41
2023-05-19T09:35:14.439Z,60.31
2023-05-19T09:36:14.446Z,59.30
2023-05-19T09:37:14.419Z,60.00
2023-05-19T09:38:14.414Z,59.80
2023-05-19T09:39:14.415Z,61.21
2023-05-19T09:40:14.410Z,60.28
2023-05-19T09:41:14.387Z,59.27
2023-05-19T09:42:14.378Z,59.67
2023-05-19T09:43:14.357Z,58.47
2023-05-19T09:44:14.519Z,58.67
2023-05-19T09:45:14.328Z,56.52
2023-05-19T09:46:14.734Z,55.91
2023-05-19T09:47:14.308Z,56.12
2023-05-19T09:48:14.302Z,56.09
2023-05-19T09:49:14.307Z,56.60
2023-05-19T09:50:14.285Z,56.27
2023-05-19T09:51:14.268Z,57.28
2023-05-19T09:52:14.260Z,56.44
2023-05-19T09:53:14.260Z,56.74
2023-05-19T09:54:14.264Z,55.91
2023-05-19T09:55:14.219Z,56.11
2023-05-19T09:56:14.216Z,56.09
2023-05-19T09:57:14.199Z,55.68
2023-05-19T09:58:14.188Z,54.98
2023-05-19T09:59:14.199Z,55.08
2023-05-19T10:00:14.249Z,54.96
2023-05-19T10:01:14.169Z,55.18
2023-05-19T10:02:14.148Z,55.08
2023-05-19T10:03:14.175Z,55.28
2023-05-19T10:04:14.142Z,55.28
2023-05-19T10:05:14.208Z,54.28
2023-05-19T10:06:14.103Z,54.38
2023-05-19T10:07:14.090Z,54.05
2023-05-19T10:08:14.088Z,54.45
2023-05-19T10:09:14.106Z,53.92
2023-05-19T10:10:14.101Z,53.72
2023-05-19T10:11:14.040Z,55.83
2023-05-19T10:12:14.043Z,54.63
2023-05-19T10:13:14.040Z,53.92
2023-05-19T10:14:14.039Z,54.45
2023-05-19T10:15:14.011Z,54.72
2023-05-19T10:16:14.012Z,54.02
2023-05-19T10:17:13.984Z,54.40
2023-05-19T10:18:14.015Z,52.92
2023-05-19T10:19:14.098Z,53.20
2023-05-19T10:20:13.965Z,52.29
2023-05-19T10:21:13.938Z,52.80
2023-05-19T10:22:14.110Z,52.69
2023-05-19T10:23:13.934Z,52.39
2023-05-19T10:24:13.947Z,50.79
2023-05-19T10:25:13.904Z,50.96
2023-05-19T10:26:13.881Z,51.19
2023-05-19T10:27:13.908Z,51.76
2023-05-19T10:28:13.869Z,52.17
2023-05-19T10:29:13.890Z,50.34
2023-05-19T10:30:15.662Z,50.04
2023-05-19T10:31:13.850Z,49.33
2023-05-19T10:32:13.865Z,50.24
2023-05-19T10:33:13.869Z,51.34
2023-05-19T10:34:13.823Z,50.92
2023-05-19T10:35:13.776Z,50.63
2023-05-19T10:36:18.354Z,51.42
2023-05-19T10:37:13.812Z,51.82
2023-05-19T10:38:13.750Z,51.04
2023-05-19T10:39:13.761Z,48.93
2023-05-19T10:40:13.733Z,49.86
2023-05-19T10:41:13.764Z,50.29
2023-05-19T10:42:13.710Z,51.51
2023-05-19T10:43:13.735Z,52.51
2023-05-19T10:44:13.714Z,51.51
2023-05-19T10:45:13.729Z,52.24
2023-05-19T10:46:13.714Z,51.84
2023-05-19T10:47:13.765Z,53.17
2023-05-19T10:48:13.750Z,50.18
2023-05-19T10:49:13.658Z,51.49
2023-05-19T10:50:13.636Z,52.39
2023-05-19T10:51:14.587Z,52.59
2023-05-19T10:52:13.616Z,52.09
2023-05-19T10:53:13.604Z,51.99
2023-05-19T10:54:14.415Z,51.09
2023-05-19T10:55:13.576Z,51.97
2023-05-19T10:56:13.564Z,52.67
2023-05-19T10:57:13.553Z,52.26
2023-05-19T10:58:13.544Z,53.07
2023-05-19T10:59:13.541Z,52.24
2023-05-19T11:00:13.536Z,52.55
2023-05-19T11:01:13.510Z,52.34
2023-05-19T11:02:13.644Z,52.24
2023-05-19T11:03:13.626Z,52.34
2023-05-19T11:04:13.568Z,51.84
2023-05-19T11:05:13.461Z,51.54
2023-05-19T11:06:13.496Z,51.84
2023-05-19T11:07:13.990Z,52.55
2023-05-19T11:08:13.459Z,52.24
2023-05-19T11:09:13.468Z,51.74
2023-05-19T11:10:13.594Z,51.74
2023-05-19T11:11:13.398Z,52.04
2023-05-19T11:12:13.413Z,52.14
2023-05-19T11:13:14.906Z,51.81
2023-05-19T11:14:13.405Z,52.51
2023-05-19T11:15:13.385Z,51.92
2023-05-19T11:16:13.397Z,52.09
2023-05-19T11:17:13.346Z,50.09
2023-05-19T11:18:13.346Z,49.26
2023-05-19T11:19:13.336Z,49.66
2023-05-19T11:20:13.341Z,49.26
2023-05-19T11:21:13.306Z,51.14
2023-05-19T11:22:13.297Z,51.04
2023-05-19T11:23:13.303Z,49.31
2023-05-19T11:24:13.257Z,47.19
2023-05-19T11:25:13.268Z,47.58
2023-05-19T11:26:13.258Z,47.08
2023-05-19T11:27:13.228Z,47.50
2023-05-19T11:28:13.223Z,47.00
2023-05-19T11:29:13.212Z,47.11
2023-05-19T11:30:13.258Z,48.73
2023-05-19T11:31:13.206Z,49.05
2023-05-19T11:32:13.245Z,48.66
2023-05-19T11:33:13.227Z,49.66
2023-05-19T11:34:13.171Z,48.58
2023-05-19T11:35:13.155Z,49.80
2023-05-19T11:36:13.131Z,49.88
2023-05-19T11:37:13.145Z,50.48
2023-05-19T11:38:13.108Z,51.19
2023-05-19T11:39:13.111Z,50.16
2023-05-19T11:40:13.130Z,45.95
2023-05-19T11:41:13.067Z,47.35
2023-05-19T11:42:13.061Z,50.46
2023-05-19T11:43:13.044Z,49.93
2023-05-19T11:44:13.050Z,48.03
2023-05-19T11:45:13.048Z,48.03
2023-05-19T11:46:13.068Z,47.73
2023-05-19T11:47:13.009Z,47.61
2023-05-19T11:48:13.082Z,47.88
2023-05-19T11:49:12.990Z,45.78
2023-05-19T11:50:12.999Z,45.48
2023-05-19T11:51:12.957Z,46.06
2023-05-19T11:52:12.963Z,44.66
2023-05-19T11:53:12.948Z,45.86
2023-05-19T11:54:12.947Z,44.98
2023-05-19T11:55:12.936Z,46.26
2023-05-19T11:56:12.912Z,47.74
2023-05-19T11:57:12.919Z,48.42
2023-05-19T11:58:12.896Z,45.81
2023-05-19T11:59:12.880Z,44.09
2023-05-19T12:00:12.873Z,43.90
2023-05-19T12:01:12.849Z,43.70
2023-05-19T12:02:12.869Z,43.49
2023-05-19T12:03:12.965Z,45.27
2023-05-19T12:04:12.842Z,43.77
2023-05-19T12:05:12.874Z,45.07
2023-05-19T12:06:12.839Z,44.17
2023-05-19T12:07:12.795Z,43.37
2023-05-19T12:08:12.892Z,44.47
2023-05-19T12:09:12.774Z,41.88
2023-05-19T12:10:12.781Z,43.40
2023-05-19T12:11:12.756Z,43.21
2023-05-19T12:12:12.737Z,43.84
2023-05-19T12:13:12.760Z,44.93
2023-05-19T12:14:12.725Z,44.26
2023-05-19T12:15:12.714Z,45.56
2023-05-19T12:16:12.744Z,44.86
2023-05-19T12:17:12.673Z,44.56
2023-05-19T12:18:12.745Z,44.04
2023-05-19T12:19:12.713Z,44.74
2023-05-19T12:20:12.662Z,44.62
2023-05-19T12:21:12.633Z,45.62
2023-05-19T12:22:12.634Z,45.51
2023-05-19T12:23:12.621Z,44.21
2023-05-19T12:24:12.603Z,44.42
2023-05-19T12:25:12.655Z,44.71
2023-05-19T12:26:12.597Z,45.31
2023-05-19T12:27:12.574Z,44.01
2023-05-19T12:28:12.593Z,40.81
2023-05-19T12:29:12.545Z,39.33
2023-05-19T12:30:12.562Z,40.63
2023-05-19T12:31:12.645Z,41.11
2023-05-19T12:32:12.525Z,41.82
2023-05-19T12:33:19.073Z,42.82
2023-05-19T12:34:12.500Z,43.79
2023-05-19T12:35:12.503Z,43.90
2023-05-19T12:36:12.470Z,44.62
2023-05-19T12:37:12.486Z,45.72
2023-05-19T12:38:12.473Z,44.24
2023-05-19T12:39:12.441Z,44.13
2023-05-19T12:40:12.472Z,45.04
2023-05-19T12:41:12.434Z,45.21
2023-05-19T12:42:12.416Z,45.21
2023-05-19T12:43:12.411Z,44.21
2023-05-19T12:44:12.397Z,44.92
2023-05-19T12:45:12.408Z,45.29
2023-05-19T12:46:12.580Z,45.50
2023-05-19T12:47:12.371Z,45.57
2023-05-19T12:48:12.758Z,44.25
2023-05-19T12:49:12.365Z,43.63
2023-05-19T12:50:12.372Z,43.05
2023-05-19T12:51:12.314Z,43.57
2023-05-19T12:52:13.174Z,43.21